Sunny Hill, Illinois
Current Conditions -  °F | °C
As of 1:52 AM on Friday 19 Dec 2014 (Local Time) from KMLI Reporting Station
Few Clouds Few Clouds  
Wind Chill: 18°   Ceiling: Unl
Heat Index: 18°   Visibility: 7mi
Dew Point: 14°   Wind: 3mph
Humidity: 84%   Direction: 70°ENE
Pressure: 30.31"   Gusts: NA
Location:  41.3669°N, 90.3966°W
Report Text: KMLI 190752Z AUTO 07003KT 7SM FEW055 M08/M10 A3031 RMK AO2 SLP272 I1000 T10781100
Loading
Personal Weather Stations






























Interactive Weather Map New forecast layout! Learn more

10-Day Weather Forecast

Advertisements
Track Severe Weather on mobile